sensor_id;sensor_type;location;lat;lon;timestamp;pressure;altitude;pressure_sealevel;temperature;humidity
33191;BME280;19554;42.652;23.364;2023-08-06T00:01:24;93530.38;;;23.55;63.45
33191;BME280;19554;42.652;23.364;2023-08-06T00:03:50;93533.41;;;23.79;63.82
33191;BME280;19554;42.652;23.364;2023-08-06T00:06:16;93538.00;;;23.93;62.21
33191;BME280;19554;42.652;23.364;2023-08-06T00:08:41;93521.56;;;24.07;63.29
33191;BME280;19554;42.652;23.364;2023-08-06T00:11:06;93492.81;;;23.99;64.48
33191;BME280;19554;42.652;23.364;2023-08-06T00:13:32;93518.81;;;24.14;63.17
33191;BME280;19554;42.652;23.364;2023-08-06T00:16:09;93545.50;;;24.41;63.09
33191;BME280;19554;42.652;23.364;2023-08-06T00:18:34;93487.47;;;23.81;61.58
33191;BME280;19554;42.652;23.364;2023-08-06T00:21:00;93517.94;;;23.54;62.23
33191;BME280;19554;42.652;23.364;2023-08-06T00:23:25;93507.16;;;23.33;64.09
33191;BME280;19554;42.652;23.364;2023-08-06T00:25:50;93436.16;;;22.70;63.52
33191;BME280;19554;42.652;23.364;2023-08-06T00:28:16;93525.84;;;23.20;63.65
33191;BME280;19554;42.652;23.364;2023-08-06T00:30:41;93509.56;;;23.06;64.55
33191;BME280;19554;42.652;23.364;2023-08-06T00:33:07;93513.44;;;22.90;64.97
33191;BME280;19554;42.652;23.364;2023-08-06T00:35:32;93518.94;;;22.62;65.78
33191;BME280;19554;42.652;23.364;2023-08-06T00:37:57;93515.06;;;22.56;65.75
33191;BME280;19554;42.652;23.364;2023-08-06T00:40:23;93478.56;;;22.39;66.49
33191;BME280;19554;42.652;23.364;2023-08-06T00:42:48;93473.56;;;22.16;68.21
33191;BME280;19554;42.652;23.364;2023-08-06T00:45:14;93509.66;;;22.20;68.51
33191;BME280;19554;42.652;23.364;2023-08-06T00:47:39;93476.19;;;21.80;69.26
33191;BME280;19554;42.652;23.364;2023-08-06T00:50:07;93470.81;;;22.09;68.27
33191;BME280;19554;42.652;23.364;2023-08-06T00:52:33;93492.56;;;22.19;67.93
33191;BME280;19554;42.652;23.364;2023-08-06T00:54:59;93499.56;;;22.17;68.32
33191;BME280;19554;42.652;23.364;2023-08-06T00:57:24;93504.56;;;22.11;68.66
33191;BME280;19554;42.652;23.364;2023-08-06T00:59:51;93491.75;;;22.12;68.82
33191;BME280;19554;42.652;23.364;2023-08-06T01:02:17;93458.38;;;22.04;67.89
33191;BME280;19554;42.652;23.364;2023-08-06T01:04:42;93382.31;;;21.58;68.64
33191;BME280;19554;42.652;23.364;2023-08-06T01:07:37;93430.41;;;21.64;70.45
33191;BME280;19554;42.652;23.364;2023-08-06T01:10:24;93460.69;;;21.88;71.22
33191;BME280;19554;42.652;23.364;2023-08-06T01:13:15;93453.72;;;22.40;70.88
33191;BME280;19554;42.652;23.364;2023-08-06T01:15:46;93456.00;;;22.70;69.07
33191;BME280;19554;42.652;23.364;2023-08-06T01:18:12;93462.19;;;22.92;68.52
33191;BME280;19554;42.652;23.364;2023-08-06T01:20:38;93421.78;;;22.73;67.03
33191;BME280;19554;42.652;23.364;2023-08-06T01:23:03;93417.06;;;22.99;67.24
33191;BME280;19554;42.652;23.364;2023-08-06T01:26:05;93433.63;;;23.33;66.63
33191;BME280;19554;42.652;23.364;2023-08-06T01:31:31;93383.47;;;23.27;64.10
33191;BME280;19554;42.652;23.364;2023-08-06T01:33:58;93430.97;;;23.22;65.54
33191;BME280;19554;42.652;23.364;2023-08-06T01:36:25;93430.94;;;23.26;65.79
33191;BME280;19554;42.652;23.364;2023-08-06T01:38:52;93435.66;;;23.18;65.60
33191;BME280;19554;42.652;23.364;2023-08-06T01:41:18;93420.16;;;23.01;65.57
33191;BME280;19554;42.652;23.364;2023-08-06T01:43:44;93428.66;;;23.13;66.31
33191;BME280;19554;42.652;23.364;2023-08-06T01:46:09;93412.72;;;23.15;66.53
33191;BME280;19554;42.652;23.364;2023-08-06T01:48:35;93413.00;;;23.35;66.71
33191;BME280;19554;42.652;23.364;2023-08-06T01:51:01;93392.13;;;23.07;65.86
33191;BME280;19554;42.652;23.364;2023-08-06T01:53:28;93423.53;;;23.26;66.10
33191;BME280;19554;42.652;23.364;2023-08-06T01:55:54;93427.72;;;23.45;65.42
33191;BME280;19554;42.652;23.364;2023-08-06T01:58:19;93430.50;;;23.34;65.58
33191;BME280;19554;42.652;23.364;2023-08-06T02:00:44;93426.56;;;23.42;65.85
33191;BME280;19554;42.652;23.364;2023-08-06T02:03:10;93394.84;;;23.11;65.49
33191;BME280;19554;42.652;23.364;2023-08-06T02:05:35;93420.06;;;23.26;66.32
33191;BME280;19554;42.652;23.364;2023-08-06T02:08:01;93392.13;;;23.07;66.41
33191;BME280;19554;42.652;23.364;2023-08-06T02:10:26;93395.56;;;23.22;66.38
33191;BME280;19554;42.652;23.364;2023-08-06T02:12:51;93397.50;;;23.25;66.22
33191;BME280;19554;42.652;23.364;2023-08-06T02:15:17;93405.53;;;23.47;67.05
33191;BME280;19554;42.652;23.364;2023-08-06T02:17:42;93423.09;;;23.42;66.09
33191;BME280;19554;42.652;23.364;2023-08-06T02:20:08;93417.72;;;23.24;66.29
33191;BME280;19554;42.652;23.364;2023-08-06T02:22:33;93399.16;;;23.05;67.58
33191;BME280;19554;42.652;23.364;2023-08-06T02:24:58;93437.72;;;22.78;69.45
33191;BME280;19554;42.652;23.364;2023-08-06T02:27:24;93384.59;;;22.38;68.67
33191;BME280;19554;42.652;23.364;2023-08-06T02:29:50;93440.44;;;22.78;69.47
33191;BME280;19554;42.652;23.364;2023-08-06T02:32:15;93438.06;;;22.80;69.06
33191;BME280;19554;42.652;23.364;2023-08-06T02:34:41;93414.50;;;22.34;69.51
33191;BME280;19554;42.652;23.364;2023-08-06T02:37:06;93411.41;;;22.04;70.18
33191;BME280;19554;42.652;23.364;2023-08-06T02:39:31;93445.59;;;22.22;71.71
33191;BME280;19554;42.652;23.364;2023-08-06T02:41:58;93457.59;;;22.32;71.38
33191;BME280;19554;42.652;23.364;2023-08-06T02:44:27;93468.47;;;22.46;70.96
33191;BME280;19554;42.652;23.364;2023-08-06T02:46:52;93454.91;;;22.39;70.11
33191;BME280;19554;42.652;23.364;2023-08-06T02:49:18;93439.34;;;21.93;71.81
33191;BME280;19554;42.652;23.364;2023-08-06T02:51:45;93434.31;;;21.99;72.02
33191;BME280;19554;42.652;23.364;2023-08-06T02:54:10;93419.94;;;21.91;72.58
33191;BME280;19554;42.652;23.364;2023-08-06T02:56:36;93438.94;;;21.84;73.17
33191;BME280;19554;42.652;23.364;2023-08-06T02:59:01;93387.34;;;21.63;73.24
33191;BME280;19554;42.652;23.364;2023-08-06T03:01:26;93370.63;;;21.53;74.66
33191;BME280;19554;42.652;23.364;2023-08-06T03:03:53;93360.94;;;21.67;74.15
33191;BME280;19554;42.652;23.364;2023-08-06T03:08:44;93396.66;;;21.90;73.82
33191;BME280;19554;42.652;23.364;2023-08-06T03:11:09;93371.41;;;22.08;72.83
33191;BME280;19554;42.652;23.364;2023-08-06T03:13:35;93353.56;;;22.07;72.72
33191;BME280;19554;42.652;23.364;2023-08-06T03:16:00;93372.59;;;22.07;72.97
33191;BME280;19554;42.652;23.364;2023-08-06T03:18:26;93400.88;;;22.41;73.21
33191;BME280;19554;42.652;23.364;2023-08-06T03:20:51;93390.00;;;22.48;72.32
33191;BME280;19554;42.652;23.364;2023-08-06T03:23:17;93362.03;;;22.48;72.03
33191;BME280;19554;42.652;23.364;2023-08-06T03:25:43;93389.13;;;22.77;72.42
33191;BME280;19554;42.652;23.364;2023-08-06T03:28:08;93405.44;;;22.87;70.58
33191;BME280;19554;42.652;23.364;2023-08-06T03:30:34;93434.53;;;22.90;69.19
33191;BME280;19554;42.652;23.364;2023-08-06T03:32:59;93440.78;;;22.98;69.33
33191;BME280;19554;42.652;23.364;2023-08-06T03:35:25;93424.03;;;23.07;69.17
33191;BME280;19554;42.652;23.364;2023-08-06T03:37:50;93422.84;;;23.11;68.36
33191;BME280;19554;42.652;23.364;2023-08-06T03:40:16;93410.09;;;22.98;68.44
33191;BME280;19554;42.652;23.364;2023-08-06T03:42:41;93405.19;;;22.28;71.29
33191;BME280;19554;42.652;23.364;2023-08-06T03:45:07;93425.00;;;21.71;73.76
33191;BME280;19554;42.652;23.364;2023-08-06T03:47:32;93419.56;;;21.68;74.99
33191;BME280;19554;42.652;23.364;2023-08-06T03:49:58;93450.63;;;21.92;74.55
33191;BME280;19554;42.652;23.364;2023-08-06T03:52:23;93436.63;;;21.93;73.18
33191;BME280;19554;42.652;23.364;2023-08-06T03:54:49;93430.03;;;22.01;72.19
33191;BME280;19554;42.652;23.364;2023-08-06T03:57:14;93445.97;;;22.21;71.86
33191;BME280;19554;42.652;23.364;2023-08-06T03:59:39;93448.31;;;22.30;72.55
33191;BME280;19554;42.652;23.364;2023-08-06T04:02:05;93470.03;;;22.40;73.43
33191;BME280;19554;42.652;23.364;2023-08-06T04:04:30;93469.63;;;22.53;72.05
33191;BME280;19554;42.652;23.364;2023-08-06T04:06:56;93475.50;;;22.30;71.95
33191;BME280;19554;42.652;23.364;2023-08-06T04:09:21;93424.22;;;21.74;72.03
33191;BME280;19554;42.652;23.364;2023-08-06T04:11:46;93463.78;;;21.83;73.35
33191;BME280;19554;42.652;23.364;2023-08-06T04:14:12;93453.69;;;21.58;74.94
33191;BME280;19554;42.652;23.364;2023-08-06T04:16:37;93435.84;;;21.61;74.44
33191;BME280;19554;42.652;23.364;2023-08-06T04:19:02;93402.44;;;21.42;75.31
33191;BME280;19554;42.652;23.364;2023-08-06T04:21:28;93431.94;;;21.58;74.92
33191;BME280;19554;42.652;23.364;2023-08-06T04:23:53;93413.31;;;21.67;75.93
33191;BME280;19554;42.652;23.364;2023-08-06T04:26:19;93410.25;;;21.83;75.56
33191;BME280;19554;42.652;23.364;2023-08-06T04:28:44;93429.63;;;22.14;74.70
33191;BME280;19554;42.652;23.364;2023-08-06T04:31:09;93437.03;;;22.31;74.56
33191;BME280;19554;42.652;23.364;2023-08-06T04:33:35;93425.00;;;22.39;73.59
33191;BME280;19554;42.652;23.364;2023-08-06T04:36:00;93351.66;;;21.82;73.18
33191;BME280;19554;42.652;23.364;2023-08-06T04:38:26;93417.19;;;22.45;73.50
33191;BME280;19554;42.652;23.364;2023-08-06T04:40:52;93408.59;;;22.71;72.85
33191;BME280;19554;42.652;23.364;2023-08-06T04:43:18;93345.75;;;22.41;71.92
33191;BME280;19554;42.652;23.364;2023-08-06T04:45:50;93371.31;;;22.58;72.07
33191;BME280;19554;42.652;23.364;2023-08-06T04:48:16;93326.34;;;22.28;71.03
33191;BME280;19554;42.652;23.364;2023-08-06T04:50:46;93314.72;;;22.24;70.95
33191;BME280;19554;42.652;23.364;2023-08-06T04:53:11;93366.66;;;22.62;71.39
33191;BME280;19554;42.652;23.364;2023-08-06T04:55:37;93363.59;;;22.45;71.09
33191;BME280;19554;42.652;23.364;2023-08-06T04:58:03;93362.88;;;22.20;72.85
33191;BME280;19554;42.652;23.364;2023-08-06T05:00:28;93365.97;;;22.29;73.65
33191;BME280;19554;42.652;23.364;2023-08-06T05:02:53;93369.06;;;22.31;73.52
33191;BME280;19554;42.652;23.364;2023-08-06T05:05:19;93372.16;;;22.40;72.84
33191;BME280;19554;42.652;23.364;2023-08-06T05:07:49;93358.22;;;22.24;73.18
33191;BME280;19554;42.652;23.364;2023-08-06T05:10:15;93364.38;;;22.35;74.26
33191;BME280;19554;42.652;23.364;2023-08-06T05:12:40;93367.47;;;22.52;74.21
33191;BME280;19554;42.652;23.364;2023-08-06T05:15:06;93378.63;;;22.82;72.44
33191;BME280;19554;42.652;23.364;2023-08-06T05:17:31;93365.44;;;22.70;71.90
33191;BME280;19554;42.652;23.364;2023-08-06T05:19:57;93390.66;;;22.88;71.50
33191;BME280;19554;42.652;23.364;2023-08-06T05:22:22;93391.53;;;22.64;70.94
33191;BME280;19554;42.652;23.364;2023-08-06T05:24:47;93386.53;;;22.37;72.53
33191;BME280;19554;42.652;23.364;2023-08-06T05:27:13;93348.91;;;22.18;72.39
33191;BME280;19554;42.652;23.364;2023-08-06T05:29:38;93323.34;;;21.69;72.76
33191;BME280;19554;42.652;23.364;2023-08-06T05:32:04;93360.19;;;21.98;73.80
33191;BME280;19554;42.652;23.364;2023-08-06T05:34:30;93379.97;;;21.95;75.36
33191;BME280;19554;42.652;23.364;2023-08-06T05:36:55;93376.47;;;21.81;75.97
33191;BME280;19554;42.652;23.364;2023-08-06T05:39:20;93374.50;;;22.13;76.76
33191;BME280;19554;42.652;23.364;2023-08-06T05:41:46;93362.09;;;22.30;75.52
33191;BME280;19554;42.652;23.364;2023-08-06T05:44:11;93323.22;;;22.37;74.91
33191;BME280;19554;42.652;23.364;2023-08-06T05:46:36;93359.69;;;22.54;73.77
33191;BME280;19554;42.652;23.364;2023-08-06T05:49:02;93351.00;;;22.80;74.36
33191;BME280;19554;42.652;23.364;2023-08-06T05:51:27;93359.78;;;23.20;73.08
33191;BME280;19554;42.652;23.364;2023-08-06T05:53:54;93362.25;;;23.63;70.72
33191;BME280;19554;42.652;23.364;2023-08-06T05:56:19;93362.09;;;23.84;69.02
33191;BME280;19554;42.652;23.364;2023-08-06T05:58:44;93355.16;;;24.21;66.79
33191;BME280;19554;42.652;23.364;2023-08-06T06:01:11;93350.53;;;24.56;66.37
33191;BME280;19554;42.652;23.364;2023-08-06T06:03:37;93368.22;;;24.75;63.46
33191;BME280;19554;42.652;23.364;2023-08-06T06:06:02;93330.69;;;24.52;61.54
33191;BME280;19554;42.652;23.364;2023-08-06T06:08:28;93370.13;;;25.12;60.06
33191;BME280;19554;42.652;23.364;2023-08-06T06:10:54;93373.03;;;25.28;59.20
33191;BME280;19554;42.652;23.364;2023-08-06T06:13:19;93385.81;;;25.62;58.48
33191;BME280;19554;42.652;23.364;2023-08-06T06:15:46;93393.38;;;25.82;57.86
33191;BME280;19554;42.652;23.364;2023-08-06T06:18:13;93388.56;;;25.89;55.77
33191;BME280;19554;42.652;23.364;2023-08-06T06:20:38;93395.34;;;25.77;55.72
33191;BME280;19554;42.652;23.364;2023-08-06T06:23:04;93405.63;;;25.70;55.97
33191;BME280;19554;42.652;23.364;2023-08-06T06:25:29;93409.13;;;25.70;55.36
33191;BME280;19554;42.652;23.364;2023-08-06T06:27:54;93418.00;;;25.51;55.52
33191;BME280;19554;42.652;23.364;2023-08-06T06:30:20;93418.38;;;25.22;55.60
33191;BME280;19554;42.652;23.364;2023-08-06T06:32:45;93421.63;;;25.10;56.61
33191;BME280;19554;42.652;23.364;2023-08-06T06:35:10;93419.94;;;24.89;56.65
33191;BME280;19554;42.652;23.364;2023-08-06T06:37:36;93424.53;;;24.58;57.34
33191;BME280;19554;42.652;23.364;2023-08-06T06:40:01;93432.63;;;24.27;58.57
33191;BME280;19554;42.652;23.364;2023-08-06T06:42:27;93431.25;;;24.01;58.80
33191;BME280;19554;42.652;23.364;2023-08-06T06:44:52;93381.63;;;23.72;59.91
33191;BME280;19554;42.652;23.364;2023-08-06T06:47:17;93432.22;;;24.25;59.31
33191;BME280;19554;42.652;23.364;2023-08-06T06:49:43;93436.50;;;24.26;59.07
33191;BME280;19554;42.652;23.364;2023-08-06T06:52:08;93434.88;;;24.32;58.19
33191;BME280;19554;42.652;23.364;2023-08-06T06:54:34;93442.28;;;24.35;58.77
33191;BME280;19554;42.652;23.364;2023-08-06T06:56:59;93441.22;;;24.67;58.40
33191;BME280;19554;42.652;23.364;2023-08-06T06:59:24;93449.75;;;25.07;57.26
33191;BME280;19554;42.652;23.364;2023-08-06T07:01:50;93453.88;;;25.22;56.94
33191;BME280;19554;42.652;23.364;2023-08-06T07:04:15;93461.25;;;25.25;55.83
33191;BME280;19554;42.652;23.364;2023-08-06T07:06:40;93460.97;;;25.47;54.38
33191;BME280;19554;42.652;23.364;2023-08-06T07:09:06;93466.28;;;25.61;53.75
33191;BME280;19554;42.652;23.364;2023-08-06T07:11:31;93468.63;;;25.90;52.68
33191;BME280;19554;42.652;23.364;2023-08-06T07:13:57;93474.09;;;26.17;52.78
33191;BME280;19554;42.652;23.364;2023-08-06T07:16:23;93468.09;;;26.73;50.84
33191;BME280;19554;42.652;23.364;2023-08-06T07:18:51;93412.53;;;26.52;49.15
33191;BME280;19554;42.652;23.364;2023-08-06T07:21:17;93476.31;;;26.73;47.92
33191;BME280;19554;42.652;23.364;2023-08-06T07:23:42;93476.69;;;26.51;48.27
33191;BME280;19554;42.652;23.364;2023-08-06T07:26:08;93460.69;;;26.46;48.06
33191;BME280;19554;42.652;23.364;2023-08-06T07:28:34;93484.88;;;26.75;47.99
33191;BME280;19554;42.652;23.364;2023-08-06T07:30:59;93479.59;;;26.87;46.99
33191;BME280;19554;42.652;23.364;2023-08-06T07:33:25;93473.19;;;26.94;46.42
33191;BME280;19554;42.652;23.364;2023-08-06T07:35:50;93479.84;;;27.16;45.88
33191;BME280;19554;42.652;23.364;2023-08-06T07:38:16;93449.34;;;27.14;45.48
33191;BME280;19554;42.652;23.364;2023-08-06T07:40:42;93484.69;;;27.29;44.20
33191;BME280;19554;42.652;23.364;2023-08-06T07:43:07;93479.34;;;27.22;44.35
33191;BME280;19554;42.652;23.364;2023-08-06T07:45:36;93470.00;;;27.19;43.70
33191;BME280;19554;42.652;23.364;2023-08-06T07:48:02;93479.47;;;27.14;43.95
33191;BME280;19554;42.652;23.364;2023-08-06T07:50:27;93423.13;;;26.74;44.01
33191;BME280;19554;42.652;23.364;2023-08-06T07:52:52;93477.50;;;27.35;44.05
33191;BME280;19554;42.652;23.364;2023-08-06T07:55:18;93479.31;;;27.61;42.76
33191;BME280;19554;42.652;23.364;2023-08-06T07:57:43;93482.66;;;27.53;42.58
33191;BME280;19554;42.652;23.364;2023-08-06T08:00:09;93473.13;;;27.57;42.56
33191;BME280;19554;42.652;23.364;2023-08-06T08:02:35;93474.81;;;27.71;42.83
33191;BME280;19554;42.652;23.364;2023-08-06T08:05:00;93471.53;;;27.96;42.82
33191;BME280;19554;42.652;23.364;2023-08-06T08:07:26;93461.97;;;28.04;42.28
33191;BME280;19554;42.652;23.364;2023-08-06T08:09:53;93469.41;;;28.20;41.50
33191;BME280;19554;42.652;23.364;2023-08-06T08:12:19;93442.06;;;28.17;41.33
33191;BME280;19554;42.652;23.364;2023-08-06T08:14:44;93456.47;;;28.37;40.64
33191;BME280;19554;42.652;23.364;2023-08-06T08:17:11;93465.22;;;28.32;41.35
33191;BME280;19554;42.652;23.364;2023-08-06T08:19:37;93471.91;;;28.15;42.16
33191;BME280;19554;42.652;23.364;2023-08-06T08:22:02;93476.75;;;28.43;41.47
33191;BME280;19554;42.652;23.364;2023-08-06T08:24:28;93472.94;;;28.37;41.59
33191;BME280;19554;42.652;23.364;2023-08-06T08:26:56;93468.50;;;28.43;40.11
33191;BME280;19554;42.652;23.364;2023-08-06T08:29:22;93474.50;;;28.38;39.90
33191;BME280;19554;42.652;23.364;2023-08-06T08:31:48;93478.06;;;28.02;40.26
33191;BME280;19554;42.652;23.364;2023-08-06T08:34:16;93465.13;;;27.86;40.92
33191;BME280;19554;42.652;23.364;2023-08-06T08:36:42;93464.84;;;27.81;41.32
33191;BME280;19554;42.652;23.364;2023-08-06T08:39:08;93463.31;;;28.13;41.11
33191;BME280;19554;42.652;23.364;2023-08-06T08:41:35;93467.38;;;28.41;40.68
33191;BME280;19554;42.652;23.364;2023-08-06T08:44:01;93441.03;;;27.94;39.38
33191;BME280;19554;42.652;23.364;2023-08-06T08:46:29;93474.47;;;28.05;40.16
33191;BME280;19554;42.652;23.364;2023-08-06T08:48:56;93461.03;;;28.11;40.44
33191;BME280;19554;42.652;23.364;2023-08-06T08:51:23;93461.63;;;28.19;40.23
33191;BME280;19554;42.652;23.364;2023-08-06T08:53:49;93456.78;;;28.06;41.39
33191;BME280;19554;42.652;23.364;2023-08-06T08:56:16;93452.34;;;28.13;41.61
33191;BME280;19554;42.652;23.364;2023-08-06T08:58:41;93459.03;;;28.11;41.75
33191;BME280;19554;42.652;23.364;2023-08-06T09:01:07;93413.59;;;27.94;41.49
33191;BME280;19554;42.652;23.364;2023-08-06T09:03:34;93444.13;;;28.29;42.21
33191;BME280;19554;42.652;23.364;2023-08-06T09:06:02;93440.03;;;28.21;41.63
33191;BME280;19554;42.652;23.364;2023-08-06T09:08:34;93401.69;;;28.01;41.13
33191;BME280;19554;42.652;23.364;2023-08-06T09:11:02;93447.91;;;28.35;41.19
33191;BME280;19554;42.652;23.364;2023-08-06T09:13:27;93429.97;;;28.30;40.78
33191;BME280;19554;42.652;23.364;2023-08-06T09:15:53;93443.13;;;28.55;40.49
33191;BME280;19554;42.652;23.364;2023-08-06T09:18:29;93439.06;;;28.44;41.03
33191;BME280;19554;42.652;23.364;2023-08-06T09:20:55;93427.47;;;28.20;41.68
33191;BME280;19554;42.652;23.364;2023-08-06T09:23:27;93422.16;;;28.13;42.49
33191;BME280;19554;42.652;23.364;2023-08-06T09:25:54;93427.16;;;28.18;41.24
33191;BME280;19554;42.652;23.364;2023-08-06T09:28:20;93433.06;;;28.32;41.02
33191;BME280;19554;42.652;23.364;2023-08-06T09:30:47;93417.97;;;28.41;40.92
33191;BME280;19554;42.652;23.364;2023-08-06T09:33:17;93426.38;;;28.33;40.49
33191;BME280;19554;42.652;23.364;2023-08-06T09:35:43;93414.22;;;28.34;40.72
33191;BME280;19554;42.652;23.364;2023-08-06T09:38:09;93420.28;;;28.26;41.23
33191;BME280;19554;42.652;23.364;2023-08-06T09:40:36;93408.13;;;27.94;40.40
33191;BME280;19554;42.652;23.364;2023-08-06T09:43:02;93402.88;;;28.16;40.74
33191;BME280;19554;42.652;23.364;2023-08-06T09:45:33;93401.50;;;28.41;39.99
33191;BME280;19554;42.652;23.364;2023-08-06T09:48:02;93408.78;;;28.47;39.97
33191;BME280;19554;42.652;23.364;2023-08-06T09:50:32;93367.31;;;27.96;40.14
33191;BME280;19554;42.652;23.364;2023-08-06T09:52:58;93424.06;;;28.16;36.89
33191;BME280;19554;42.652;23.364;2023-08-06T09:55:24;93424.41;;;28.01;37.42
33191;BME280;19554;42.652;23.364;2023-08-06T09:57:53;93417.00;;;27.82;38.13
33191;BME280;19554;42.652;23.364;2023-08-06T10:00:19;93419.75;;;27.82;38.50
33191;BME280;19554;42.652;23.364;2023-08-06T10:02:45;93371.16;;;27.30;38.62
33191;BME280;19554;42.652;23.364;2023-08-06T10:05:11;93430.53;;;27.73;38.54
33191;BME280;19554;42.652;23.364;2023-08-06T10:07:37;93384.97;;;27.43;38.19
33191;BME280;19554;42.652;23.364;2023-08-06T10:10:05;93435.00;;;27.47;39.16
33191;BME280;19554;42.652;23.364;2023-08-06T10:12:37;93438.28;;;27.38;39.12
33191;BME280;19554;42.652;23.364;2023-08-06T10:15:08;93435.91;;;27.40;39.21
33191;BME280;19554;42.652;23.364;2023-08-06T10:17:36;93440.88;;;27.45;39.09
33191;BME280;19554;42.652;23.364;2023-08-06T10:20:07;93439.47;;;27.57;38.69
33191;BME280;19554;42.652;23.364;2023-08-06T10:22:33;93430.47;;;27.56;38.58
33191;BME280;19554;42.652;23.364;2023-08-06T10:25:00;93439.09;;;27.38;38.68
33191;BME280;19554;42.652;23.364;2023-08-06T10:27:54;93421.63;;;27.12;38.84
33191;BME280;19554;42.652;23.364;2023-08-06T10:30:30;93439.13;;;27.35;39.47
33191;BME280;19554;42.652;23.364;2023-08-06T10:33:03;93439.47;;;27.57;38.88
33191;BME280;19554;42.652;23.364;2023-08-06T10:35:31;93433.22;;;27.56;38.60
33191;BME280;19554;42.652;23.364;2023-08-06T10:38:09;93442.13;;;27.60;38.81
33191;BME280;19554;42.652;23.364;2023-08-06T10:40:36;93451.56;;;27.59;38.15
33191;BME280;19554;42.652;23.364;2023-08-06T10:43:03;93454.81;;;27.34;38.40
33191;BME280;19554;42.652;23.364;2023-08-06T10:45:29;93460.38;;;27.31;39.01
33191;BME280;19554;42.652;23.364;2023-08-06T10:47:56;93373.25;;;26.62;39.25
33191;BME280;19554;42.652;23.364;2023-08-06T10:50:22;93437.09;;;26.99;39.87
33191;BME280;19554;42.652;23.364;2023-08-06T10:52:48;93472.94;;;27.08;40.11
33191;BME280;19554;42.652;23.364;2023-08-06T10:55:22;93462.28;;;26.70;41.15
33191;BME280;19554;42.652;23.364;2023-08-06T10:57:48;93468.84;;;26.53;42.68
33191;BME280;19554;42.652;23.364;2023-08-06T11:00:13;93466.38;;;26.59;42.85
33191;BME280;19554;42.652;23.364;2023-08-06T11:02:39;93426.94;;;26.33;42.87
33191;BME280;19554;42.652;23.364;2023-08-06T11:05:09;93483.56;;;26.59;42.29
33191;BME280;19554;42.652;23.364;2023-08-06T11:07:35;93471.31;;;26.44;42.68
33191;BME280;19554;42.652;23.364;2023-08-06T11:10:05;93477.25;;;26.62;42.46
33191;BME280;19554;42.652;23.364;2023-08-06T11:12:34;93432.47;;;26.29;43.17
33191;BME280;19554;42.652;23.364;2023-08-06T11:15:00;93479.47;;;26.71;42.72
33191;BME280;19554;42.652;23.364;2023-08-06T11:17:31;93448.47;;;26.78;42.72
33191;BME280;19554;42.652;23.364;2023-08-06T11:20:02;93478.88;;;27.03;42.45
33191;BME280;19554;42.652;23.364;2023-08-06T11:22:28;93485.03;;;27.31;42.29
33191;BME280;19554;42.652;23.364;2023-08-06T11:24:54;93502.16;;;27.35;41.33
33191;BME280;19554;42.652;23.364;2023-08-06T11:27:20;93487.22;;;27.20;41.27
33191;BME280;19554;42.652;23.364;2023-08-06T11:29:45;93512.94;;;27.02;38.48
33191;BME280;19554;42.652;23.364;2023-08-06T11:32:11;93457.34;;;26.11;38.61
33191;BME280;19554;42.652;23.364;2023-08-06T11:34:37;93500.56;;;26.23;40.24
33191;BME280;19554;42.652;23.364;2023-08-06T11:37:03;93501.25;;;26.28;41.18
33191;BME280;19554;42.652;23.364;2023-08-06T11:39:36;93503.19;;;26.31;42.14
33191;BME280;19554;42.652;23.364;2023-08-06T11:42:06;93501.03;;;26.42;42.55
33191;BME280;19554;42.652;23.364;2023-08-06T11:44:35;93497.81;;;26.51;44.62
33191;BME280;19554;42.652;23.364;2023-08-06T11:47:02;93498.91;;;26.30;46.55
33191;BME280;19554;42.652;23.364;2023-08-06T11:49:48;93493.66;;;26.15;48.38
33191;BME280;19554;42.652;23.364;2023-08-06T11:52:21;93478.00;;;26.16;48.26
33191;BME280;19554;42.652;23.364;2023-08-06T11:55:06;93487.97;;;26.30;47.98
33191;BME280;19554;42.652;23.364;2023-08-06T11:57:33;93494.13;;;26.34;47.27
33191;BME280;19554;42.652;23.364;2023-08-06T12:00:11;93491.03;;;26.32;47.56
33191;BME280;19554;42.652;23.364;2023-08-06T12:02:41;93477.25;;;26.39;47.34
33191;BME280;19554;42.652;23.364;2023-08-06T12:05:14;93482.31;;;26.40;47.40
33191;BME280;19554;42.652;23.364;2023-08-06T12:07:42;93474.38;;;26.50;47.06
33191;BME280;19554;42.652;23.364;2023-08-06T12:10:08;93467.03;;;26.66;45.82
33191;BME280;19554;42.652;23.364;2023-08-06T12:12:34;93499.72;;;27.21;45.00
33191;BME280;19554;42.652;23.364;2023-08-06T12:14:59;93485.25;;;27.40;42.79
33191;BME280;19554;42.652;23.364;2023-08-06T12:17:25;93480.75;;;27.50;41.01
33191;BME280;19554;42.652;23.364;2023-08-06T12:19:51;93476.16;;;27.63;40.59
33191;BME280;19554;42.652;23.364;2023-08-06T12:22:16;93465.97;;;27.63;40.62
33191;BME280;19554;42.652;23.364;2023-08-06T12:24:42;93478.91;;;27.43;40.72
33191;BME280;19554;42.652;23.364;2023-08-06T12:27:09;93467.06;;;27.30;41.48
33191;BME280;19554;42.652;23.364;2023-08-06T12:29:34;93465.16;;;27.27;42.39
33191;BME280;19554;42.652;23.364;2023-08-06T12:32:00;93473.09;;;27.41;42.56
33191;BME280;19554;42.652;23.364;2023-08-06T12:34:25;93466.97;;;27.53;42.48
33191;BME280;19554;42.652;23.364;2023-08-06T12:36:50;93474.19;;;27.63;41.38
33191;BME280;19554;42.652;23.364;2023-08-06T12:39:16;93479.16;;;27.69;40.49
33191;BME280;19554;42.652;23.364;2023-08-06T12:41:41;93482.25;;;27.71;40.50
33191;BME280;19554;42.652;23.364;2023-08-06T12:44:08;93477.97;;;27.70;40.42
33191;BME280;19554;42.652;23.364;2023-08-06T12:46:34;93453.59;;;27.55;39.50
33191;BME280;19554;42.652;23.364;2023-08-06T12:48:59;93470.75;;;27.59;39.81
33191;BME280;19554;42.652;23.364;2023-08-06T12:51:25;93466.13;;;27.56;39.95
33191;BME280;19554;42.652;23.364;2023-08-06T12:53:50;93475.31;;;27.66;40.09